Time;durP1;ratioP1;P1;durP2;ratioP2;P2;SDS_P1;SDS_P2;PMS_P1;PMS_P2;Temp;Humidity;BMP_temperature;BMP_pressure;BME280_temperature;BME280_humidity;BME280_pressure;Samples;Min_cycle;Max_cycle;Signal;HPM_P1;HPM_P2
2022/04/11 00:01:34;;;;;;;7.20;2.93;;;7.90;99.90;;;;;;4954449;29;20278;-72
2022/04/11 00:04:01;;;;;;;8.87;3.40;;;8.00;99.90;;;;;;4954919;29;20570;-71
2022/04/11 00:06:29;;;;;;;6.43;3.50;;;8.00;99.90;;;;;;4953596;28;20662;-71
2022/04/11 00:08:56;;;;;;;12.07;3.43;;;8.00;99.90;;;;;;4954029;29;20208;-71
2022/04/11 00:11:23;;;;;;;5.37;2.80;;;8.10;99.90;;;;;;4954840;29;20239;-75
2022/04/11 00:13:50;;;;;;;7.00;3.33;;;8.00;99.90;;;;;;4954004;28;20208;-72
2022/04/11 00:16:16;;;;;;;5.97;2.80;;;7.90;99.90;;;;;;4954177;28;20208;-72
2022/04/11 00:18:43;;;;;;;8.17;3.10;;;7.90;99.90;;;;;;4954495;28;20700;-75
2022/04/11 00:21:10;;;;;;;7.87;2.80;;;7.90;99.90;;;;;;4954429;28;20238;-74
2022/04/11 00:23:38;;;;;;;5.47;3.20;;;7.80;99.90;;;;;;4954274;28;20207;-73
2022/04/11 00:26:05;;;;;;;5.83;2.80;;;7.80;99.90;;;;;;4954393;29;20204;-71
2022/04/11 00:28:32;;;;;;;5.47;2.97;;;7.60;99.90;;;;;;4954601;29;20219;-72
2022/04/11 00:30:59;;;;;;;4.50;2.90;;;7.60;99.90;;;;;;4954147;29;20578;-72
2022/04/11 00:33:25;;;;;;;8.73;2.83;;;7.40;99.90;;;;;;4954570;29;20207;-73
2022/04/11 00:35:52;;;;;;;5.13;3.13;;;7.40;99.90;;;;;;4954264;29;20215;-72
2022/04/11 00:38:19;;;;;;;6.10;2.83;;;7.40;99.90;;;;;;4954104;29;20330;-75
2022/04/11 00:40:47;;;;;;;6.13;2.73;;;7.40;99.90;;;;;;4943710;29;20574;-73
2022/04/11 00:43:29;;;;;;;4.30;2.57;;;7.40;99.90;;;;;;4935012;29;20228;-75
2022/04/11 00:45:56;;;;;;;7.63;2.50;;;7.40;99.90;;;;;;4935187;29;20675;-75
2022/04/11 00:48:23;;;;;;;6.00;2.93;;;7.40;99.90;;;;;;4935108;29;20216;-72
2022/04/11 00:50:51;;;;;;;4.50;2.53;;;7.40;99.90;;;;;;4934786;29;20236;-71
2022/04/11 00:53:18;;;;;;;6.20;2.90;;;7.40;99.90;;;;;;4934170;29;20212;-71
2022/04/11 00:55:44;;;;;;;6.77;2.83;;;7.30;99.90;;;;;;4934494;29;20209;-72
2022/04/11 00:58:13;;;;;;;3.30;2.40;;;7.30;99.90;;;;;;4953801;29;20234;-72
2022/04/11 01:00:40;;;;;;;5.87;2.73;;;7.30;99.90;;;;;;4954174;29;20208;-71
2022/04/11 01:03:07;;;;;;;6.33;3.00;;;7.20;99.90;;;;;;4953384;29;20248;-71
2022/04/11 01:05:34;;;;;;;7.30;2.87;;;7.20;99.90;;;;;;4952858;29;20733;-71
2022/04/11 01:08:06;;;;;;;4.90;2.70;;;7.10;99.90;;;;;;4953284;29;20299;-71
2022/04/11 01:10:32;;;;;;;4.40;2.87;;;7.10;99.90;;;;;;4953918;29;20232;-71
2022/04/11 01:12:59;;;;;;;5.40;2.83;;;7.00;99.90;;;;;;4952433;28;20254;-71
2022/04/11 01:15:28;;;;;;;5.03;3.00;;;7.00;99.90;;;;;;4952796;29;20204;-72
2022/04/11 01:17:55;;;;;;;7.53;2.83;;;6.90;99.90;;;;;;4953561;28;20572;-74
2022/04/11 01:20:22;;;;;;;6.50;3.33;;;6.80;99.90;;;;;;4953338;29;20212;-75
2022/04/11 01:22:50;;;;;;;4.70;2.70;;;6.70;99.90;;;;;;4953213;29;20232;-72
2022/04/11 01:25:19;;;;;;;4.90;2.93;;;6.60;99.90;;;;;;4953684;29;20208;-75
2022/04/11 01:27:46;;;;;;;7.63;2.80;;;6.60;99.90;;;;;;4953377;29;20211;-74
2022/04/11 01:30:14;;;;;;;10.23;3.20;;;6.50;99.90;;;;;;4953175;29;20208;-71
2022/04/11 01:32:42;;;;;;;5.83;2.90;;;6.30;99.90;;;;;;4953501;29;20224;-73
2022/04/11 01:35:21;;;;;;;5.07;2.80;;;6.40;99.90;;;;;;4953080;29;20210;-71
2022/04/11 01:37:49;;;;;;;6.77;2.63;;;6.30;99.90;;;;;;4952603;29;20688;-76
2022/04/11 01:40:17;;;;;;;6.70;3.23;;;6.20;99.90;;;;;;4953832;29;20215;-71
2022/04/11 01:42:44;;;;;;;4.67;2.47;;;6.20;99.90;;;;;;4953265;29;20234;-75
2022/04/11 01:45:11;;;;;;;5.63;2.90;;;6.10;99.90;;;;;;4953344;29;20208;-72
2022/04/11 01:47:39;;;;;;;7.43;3.13;;;6.20;99.90;;;;;;4953166;29;20208;-71
2022/04/11 01:50:07;;;;;;;4.73;3.23;;;6.10;99.90;;;;;;4952996;29;20210;-75
2022/04/11 01:52:34;;;;;;;6.23;2.90;;;6.00;99.90;;;;;;4953434;28;20239;-71
2022/04/11 01:55:03;;;;;;;4.10;2.30;;;5.90;99.90;;;;;;4952806;29;20212;-75
2022/04/11 01:57:31;;;;;;;4.63;2.53;;;5.80;99.90;;;;;;4952978;29;20214;-71
2022/04/11 01:59:57;;;;;;;4.97;2.90;;;5.70;99.90;;;;;;4953088;28;20251;-72
2022/04/11 02:02:24;;;;;;;5.37;2.53;;;5.70;99.90;;;;;;4952981;29;20242;-75
2022/04/11 02:04:51;;;;;;;5.40;2.63;;;5.60;99.90;;;;;;4952816;29;20208;-71
2022/04/11 02:07:18;;;;;;;3.40;2.40;;;5.70;99.90;;;;;;4953307;29;20210;-71
2022/04/11 02:09:45;;;;;;;4.77;2.47;;;5.60;99.90;;;;;;4952987;29;20204;-74
2022/04/11 02:12:13;;;;;;;4.10;2.57;;;5.60;99.90;;;;;;4952023;29;20239;-72
2022/04/11 02:14:40;;;;;;;7.07;2.60;;;5.50;99.90;;;;;;4953309;28;20695;-71
2022/04/11 02:17:06;;;;;;;4.27;2.60;;;5.60;99.90;;;;;;4953037;29;20681;-71
2022/04/11 02:19:33;;;;;;;4.60;2.77;;;5.50;99.90;;;;;;4953552;29;20215;-75
2022/04/11 02:22:00;;;;;;;3.90;2.70;;;5.60;99.90;;;;;;4951752;29;20232;-72
2022/04/11 02:24:27;;;;;;;4.07;2.43;;;5.60;99.90;;;;;;4952892;29;20208;-72
2022/04/11 02:26:53;;;;;;;6.27;2.77;;;5.60;99.90;;;;;;4952815;29;20214;-75
2022/04/11 02:29:22;;;;;;;6.43;2.83;;;5.60;99.90;;;;;;4952935;29;20212;-71
2022/04/11 02:31:48;;;;;;;5.57;2.80;;;5.50;99.90;;;;;;4955399;29;20244;-72
2022/04/11 02:34:15;;;;;;;4.53;2.43;;;5.40;99.90;;;;;;4956067;29;20211;-71
2022/04/11 02:36:42;;;;;;;4.57;2.17;;;5.40;99.90;;;;;;4956050;29;20215;-71
2022/04/11 02:39:09;;;;;;;6.13;2.77;;;5.40;99.90;;;;;;4956155;29;20210;-71
2022/04/11 02:41:35;;;;;;;5.37;2.63;;;5.30;99.90;;;;;;4954759;29;20236;-73
2022/04/11 02:44:02;;;;;;;5.00;2.70;;;5.20;99.90;;;;;;4956164;29;20219;-74
2022/04/11 02:46:30;;;;;;;6.30;2.83;;;5.10;99.90;;;;;;4956821;29;20215;-72
2022/04/11 02:48:57;;;;;;;5.37;2.97;;;5.00;99.90;;;;;;4956414;29;20218;-75
2022/04/11 02:51:24;;;;;;;7.77;3.03;;;4.90;99.90;;;;;;4955859;29;20247;-71
2022/04/11 02:53:51;;;;;;;7.67;3.13;;;4.80;99.90;;;;;;4956531;29;20212;-73
2022/04/11 02:56:17;;;;;;;4.30;3.00;;;4.80;99.90;;;;;;4956699;29;20215;-72
2022/04/11 02:58:44;;;;;;;5.93;2.67;;;4.70;99.90;;;;;;4956519;29;20711;-71
2022/04/11 03:01:11;;;;;;;5.30;3.00;;;4.60;99.90;;;;;;4956277;29;20228;-74
2022/04/11 03:03:39;;;;;;;4.87;2.73;;;4.60;99.90;;;;;;4956422;29;20214;-71
2022/04/11 03:06:06;;;;;;;8.83;2.53;;;4.60;99.90;;;;;;4956028;28;20736;-72
2022/04/11 03:08:33;;;;;;;5.10;2.60;;;4.60;99.90;;;;;;4956176;29;20216;-71
2022/04/11 03:11:00;;;;;;;5.17;2.90;;;4.70;99.90;;;;;;4949426;29;20205;-71
2022/04/11 03:13:26;;;;;;;5.23;2.67;;;4.60;99.90;;;;;;4956156;29;20204;-75
2022/04/11 03:15:53;;;;;;;5.17;2.40;;;4.60;99.90;;;;;;4956503;29;20208;-75
2022/04/11 03:18:20;;;;;;;5.53;2.40;;;4.60;99.90;;;;;;4956136;28;20215;-71
2022/04/11 03:20:48;;;;;;;4.53;2.27;;;4.70;99.90;;;;;;4956995;29;20204;-72
2022/04/11 03:23:16;;;;;;;5.50;2.77;;;4.60;99.90;;;;;;4956624;29;20208;-71
2022/04/11 03:25:43;;;;;;;4.30;2.40;;;4.50;99.90;;;;;;4956999;29;20262;-71
2022/04/11 03:28:10;;;;;;;5.47;2.57;;;4.50;99.90;;;;;;4956457;29;20207;-74
2022/04/11 03:30:36;;;;;;;4.87;2.23;;;4.40;99.90;;;;;;4956452;29;20204;-72
2022/04/11 03:33:03;;;;;;;5.60;2.40;;;4.40;99.90;;;;;;4956819;29;20242;-72
2022/04/11 03:35:30;;;;;;;5.53;2.67;;;4.40;99.90;;;;;;4956512;28;20609;-71
2022/04/11 03:37:58;;;;;;;6.67;2.93;;;4.40;99.90;;;;;;4955584;29;20796;-71
2022/04/11 03:40:25;;;;;;;6.23;2.90;;;4.30;99.90;;;;;;4956305;29;20230;-72
2022/04/11 03:42:52;;;;;;;5.27;2.33;;;4.20;99.90;;;;;;4956160;28;20319;-71
2022/04/11 03:45:18;;;;;;;6.70;2.87;;;4.20;99.90;;;;;;4955970;29;20212;-73
2022/04/11 03:47:45;;;;;;;3.93;2.23;;;4.20;99.90;;;;;;4956329;29;20691;-71
2022/04/11 03:50:12;;;;;;;4.77;2.57;;;4.10;99.90;;;;;;4955906;29;20289;-71
2022/04/11 03:52:39;;;;;;;4.73;2.67;;;4.10;99.90;;;;;;4956672;29;20240;-71
2022/04/11 03:55:08;;;;;;;3.80;2.00;;;4.10;99.90;;;;;;4955912;29;20214;-71
2022/04/11 03:57:35;;;;;;;4.27;2.63;;;4.10;99.90;;;;;;4956066;29;20216;-71
2022/04/11 04:00:02;;;;;;;5.93;2.53;;;4.10;99.90;;;;;;4955952;29;20244;-74
2022/04/11 04:02:28;;;;;;;6.93;2.67;;;4.10;99.90;;;;;;4955878;29;20239;-72
2022/04/11 04:04:55;;;;;;;6.53;2.23;;;4.10;99.90;;;;;;4956134;28;20216;-75
2022/04/11 04:07:22;;;;;;;4.13;2.40;;;4.00;99.90;;;;;;4956210;29;20204;-72
2022/04/11 04:09:49;;;;;;;6.67;2.77;;;4.00;99.90;;;;;;4956022;29;20207;-71
2022/04/11 04:12:20;;;;;;;5.20;2.43;;;4.00;99.90;;;;;;4955268;28;20251;-71
2022/04/11 04:14:47;;;;;;;8.30;2.60;;;4.00;99.90;;;;;;4955325;29;20291;-71
2022/04/11 04:17:14;;;;;;;7.43;2.67;;;3.90;99.90;;;;;;4954810;29;20208;-71
2022/04/11 04:19:41;;;;;;;5.07;2.33;;;3.90;99.90;;;;;;4955565;29;20204;-73
2022/04/11 04:22:08;;;;;;;6.57;2.53;;;3.90;99.90;;;;;;4955248;29;20224;-71
2022/04/11 04:24:36;;;;;;;5.13;2.77;;;4.00;99.90;;;;;;4955493;29;20208;-72
2022/04/11 04:27:03;;;;;;;4.40;2.70;;;4.00;99.90;;;;;;4955441;29;20680;-71
2022/04/11 04:29:32;;;;;;;4.37;2.40;;;4.10;99.90;;;;;;4955440;29;20208;-71
2022/04/11 04:31:59;;;;;;;7.53;2.07;;;4.20;99.90;;;;;;4954918;29;20238;-71
2022/04/11 04:34:26;;;;;;;2.73;2.10;;;4.20;99.90;;;;;;4955454;29;20658;-71
2022/04/11 04:36:53;;;;;;;3.83;2.43;;;4.20;99.90;;;;;;4955344;29;20246;-71
2022/04/11 04:39:20;;;;;;;4.47;2.40;;;4.20;99.90;;;;;;4955746;29;20220;-71
2022/04/11 04:41:47;;;;;;;7.30;2.07;;;4.20;99.90;;;;;;4955187;29;20567;-71
2022/04/11 04:44:14;;;;;;;2.60;1.80;;;4.40;99.90;;;;;;4955159;29;20208;-71
2022/04/11 04:46:42;;;;;;;4.57;2.13;;;4.40;99.90;;;;;;4955203;29;20220;-72
2022/04/11 04:49:09;;;;;;;2.67;1.63;;;4.50;99.90;;;;;;4955005;28;20684;-72
2022/04/11 04:51:36;;;;;;;2.93;1.90;;;4.50;99.90;;;;;;4951872;29;20258;-71
2022/04/11 04:54:02;;;;;;;2.37;1.67;;;4.50;99.90;;;;;;4954478;28;20207;-71
2022/04/11 04:56:31;;;;;;;3.30;1.83;;;4.50;99.90;;;;;;4955320;28;20219;-71
2022/04/11 04:58:58;;;;;;;5.23;2.20;;;4.50;99.90;;;;;;4955100;29;20216;-71
2022/04/11 05:01:24;;;;;;;4.03;2.10;;;4.50;99.90;;;;;;4954918;29;20227;-71
2022/04/11 05:03:54;;;;;;;2.40;1.60;;;4.50;99.90;;;;;;4955582;29;20208;-71
2022/04/11 05:06:22;;;;;;;4.77;1.73;;;4.50;99.90;;;;;;4955344;28;20211;-71
2022/04/11 05:08:49;;;;;;;2.87;1.47;;;4.50;99.90;;;;;;4954682;29;20669;-71
2022/04/11 05:11:16;;;;;;;3.17;1.60;;;4.70;99.90;;;;;;4953679;29;20224;-72
2022/04/11 05:13:42;;;;;;;6.27;1.80;;;4.70;99.90;;;;;;4953495;29;20322;-71
2022/04/11 05:16:09;;;;;;;3.53;1.80;;;4.80;99.90;;;;;;4953579;29;20201;-71
2022/04/11 05:18:36;;;;;;;7.23;1.70;;;4.80;99.90;;;;;;4953801;29;20327;-72
2022/04/11 05:21:04;;;;;;;5.60;1.60;;;5.00;99.90;;;;;;4953866;29;20204;-71
2022/04/11 05:23:31;;;;;;;2.40;1.70;;;5.10;99.90;;;;;;4953410;29;20208;-72
2022/04/11 05:25:58;;;;;;;3.77;2.13;;;5.10;99.90;;;;;;4946547;29;20208;-72
2022/04/11 05:28:25;;;;;;;5.50;1.93;;;5.20;99.90;;;;;;4934869;29;20209;-72
2022/04/11 05:30:52;;;;;;;7.63;1.80;;;5.40;99.90;;;;;;4935370;29;20209;-75
2022/04/11 05:33:19;;;;;;;3.50;1.77;;;5.50;99.90;;;;;;4934584;29;20237;-71
2022/04/11 05:35:45;;;;;;;2.20;1.63;;;5.60;99.90;;;;;;4935195;29;20627;-71
2022/04/11 05:38:16;;;;;;;3.20;1.50;;;5.80;99.90;;;;;;4935352;29;20236;-71
2022/04/11 05:40:42;;;;;;;4.67;1.50;;;6.00;99.90;;;;;;4935180;29;20556;-71
2022/04/11 05:43:09;;;;;;;2.00;1.40;;;6.20;99.90;;;;;;4944311;29;20231;-71
2022/04/11 05:45:36;;;;;;;3.47;1.77;;;6.30;99.90;;;;;;4953998;29;20214;-71
2022/04/11 05:48:03;;;;;;;3.63;1.73;;;6.30;99.90;;;;;;4954233;29;20207;-71
2022/04/11 05:50:30;;;;;;;2.23;1.30;;;6.40;99.90;;;;;;4954545;29;20212;-70
2022/04/11 05:52:56;;;;;;;2.57;1.50;;;6.60;99.90;;;;;;4954069;29;20240;-71
2022/04/11 05:55:25;;;;;;;4.13;1.40;;;6.70;99.90;;;;;;4954395;29;20226;-74
2022/04/11 05:57:52;;;;;;;2.23;1.20;;;6.90;99.90;;;;;;4954064;29;20330;-71
2022/04/11 06:00:19;;;;;;;3.80;1.30;;;7.10;99.90;;;;;;4935833;29;20671;-71
2022/04/11 06:02:46;;;;;;;4.10;1.63;;;7.40;99.90;;;;;;4935296;29;20232;-71
2022/04/11 06:05:14;;;;;;;2.27;1.13;;;7.70;99.90;;;;;;4937403;29;20678;-71
2022/04/11 06:07:42;;;;;;;3.90;1.37;;;8.00;99.90;;;;;;4952133;29;20204;-72
2022/04/11 06:10:10;;;;;;;1.77;1.07;;;8.40;99.90;;;;;;4956652;29;20207;-72
2022/04/11 06:12:39;;;;;;;3.70;1.20;;;8.70;99.90;;;;;;4955917;28;20236;-71
2022/04/11 06:15:07;;;;;;;3.40;1.10;;;9.00;99.90;;;;;;4955549;29;20206;-71
2022/04/11 06:17:34;;;;;;;3.07;1.10;;;8.90;99.90;;;;;;4957316;28;20206;-71
2022/04/11 06:20:02;;;;;;;3.20;1.20;;;9.10;99.90;;;;;;4957285;29;20212;-72
2022/04/11 06:22:29;;;;;;;1.93;0.97;;;9.30;99.90;;;;;;4956852;29;20232;-75
2022/04/11 06:25:00;;;;;;;2.27;1.13;;;9.30;99.90;;;;;;4957449;29;20216;-71
2022/04/11 06:27:27;;;;;;;1.73;0.90;;;9.60;99.90;;;;;;4957503;29;20212;-74
2022/04/11 06:29:57;;;;;;;2.93;0.93;;;9.80;99.90;;;;;;4956835;29;20814;-75
2022/04/11 06:32:26;;;;;;;2.37;1.10;;;10.40;99.90;;;;;;4957312;29;20235;-76
2022/04/11 06:34:52;;;;;;;1.97;1.10;;;11.00;99.90;;;;;;4953230;29;20566;-72
2022/04/11 06:37:19;;;;;;;2.47;1.00;;;11.80;99.90;;;;;;4943587;29;20296;-71
2022/04/11 06:39:46;;;;;;;1.93;0.90;;;12.00;99.90;;;;;;4954802;29;20200;-76
2022/04/11 06:42:13;;;;;;;1.90;1.00;;;12.50;99.30;;;;;;4956499;29;20294;-74
2022/04/11 06:44:40;;;;;;;1.20;0.90;;;11.80;98.80;;;;;;4956858;29;20212;-72
2022/04/11 06:47:08;;;;;;;3.23;1.20;;;11.60;99.30;;;;;;4956630;29;20299;-72
2022/04/11 06:49:35;;;;;;;2.47;1.03;;;11.60;99.60;;;;;;4956698;29;20333;-73
2022/04/11 06:52:02;;;;;;;0.97;0.80;;;11.70;99.30;;;;;;4956770;29;20231;-72
2022/04/11 06:54:30;;;;;;;2.60;1.47;;;12.20;99.00;;;;;;4957094;29;20219;-71
2022/04/11 06:56:57;;;;;;;1.70;1.00;;;12.70;99.00;;;;;;4956490;29;20212;-71
2022/04/11 06:59:24;;;;;;;3.27;1.30;;;13.10;98.00;;;;;;4955945;29;20220;-71
2022/04/11 07:01:51;;;;;;;2.67;1.07;;;13.80;97.00;;;;;;4953269;29;20223;-73
2022/04/11 07:04:20;;;;;;;2.50;1.10;;;14.20;95.90;;;;;;4954643;29;20204;-71
2022/04/11 07:06:47;;;;;;;2.00;1.20;;;14.90;95.00;;;;;;4955038;28;20212;-75
2022/04/11 07:09:15;;;;;;;2.20;1.00;;;13.70;95.10;;;;;;4955930;28;20208;-71
2022/04/11 07:11:41;;;;;;;1.43;1.20;;;13.60;95.60;;;;;;4956343;29;20240;-71
2022/04/11 07:14:09;;;;;;;1.60;0.80;;;13.00;95.70;;;;;;4956558;29;20708;-71
2022/04/11 07:16:35;;;;;;;2.20;1.10;;;12.80;95.70;;;;;;4951274;28;20753;-74
2022/04/11 07:19:02;;;;;;;5.80;1.50;;;13.10;95.80;;;;;;4939319;29;20216;-72
2022/04/11 07:21:30;;;;;;;1.33;0.90;;;13.50;95.00;;;;;;4939824;29;20701;-72
2022/04/11 07:23:57;;;;;;;2.87;1.10;;;13.30;95.00;;;;;;4956335;29;20212;-75
2022/04/11 07:26:24;;;;;;;2.07;1.00;;;12.90;95.60;;;;;;4951821;29;20656;-76
2022/04/11 07:28:51;;;;;;;2.40;1.10;;;12.90;95.40;;;;;;4944816;29;20200;-75
2022/04/11 07:31:18;;;;;;;2.00;0.90;;;13.00;95.30;;;;;;4944680;29;20223;-74
2022/04/11 07:33:44;;;;;;;3.30;1.20;;;12.70;95.80;;;;;;4950315;29;20232;-73
2022/04/11 07:36:11;;;;;;;2.00;0.80;;;12.50;95.30;;;;;;4944567;29;20201;-77
2022/04/11 07:38:39;;;;;;;1.77;0.90;;;13.10;95.40;;;;;;4945216;29;20208;-74
2022/04/11 07:41:06;;;;;;;6.00;1.67;;;13.70;95.20;;;;;;4947202;29;20204;-76
2022/04/11 07:43:35;;;;;;;1.47;0.90;;;13.90;94.60;;;;;;4947313;29;20200;-75
2022/04/11 07:46:04;;;;;;;1.40;0.80;;;14.00;94.40;;;;;;4946427;29;20766;-71
2022/04/11 07:48:31;;;;;;;0.97;0.80;;;14.00;93.70;;;;;;4944164;29;20212;-76
2022/04/11 07:50:57;;;;;;;1.80;1.17;;;14.30;93.90;;;;;;4945947;29;20292;-75
2022/04/11 07:53:24;;;;;;;2.17;0.90;;;14.30;93.70;;;;;;4939327;29;20239;-74
2022/04/11 07:55:52;;;;;;;2.13;0.90;;;14.30;93.60;;;;;;4947443;28;20197;-77
2022/04/11 07:58:20;;;;;;;4.30;1.30;;;14.40;93.30;;;;;;4955849;28;20225;-74
2022/04/11 08:00:50;;;;;;;1.60;1.10;;;14.30;93.40;;;;;;4954520;29;20213;-74
2022/04/11 08:03:18;;;;;;;1.27;0.90;;;14.20;93.40;;;;;;4954862;28;20236;-74
2022/04/11 08:05:44;;;;;;;1.77;1.00;;;14.20;93.10;;;;;;4954548;29;20212;-75
2022/04/11 08:08:11;;;;;;;1.50;0.83;;;14.00;92.80;;;;;;4949300;29;20681;-73
2022/04/11 08:10:38;;;;;;;2.77;1.00;;;14.10;93.20;;;;;;4949923;29;20208;-70
2022/04/11 08:13:07;;;;;;;2.47;1.00;;;14.60;93.00;;;;;;4951936;29;20236;-71
2022/04/11 08:15:33;;;;;;;2.83;1.20;;;15.20;92.30;;;;;;4940323;29;20200;-73
2022/04/11 08:18:01;;;;;;;1.57;0.90;;;15.50;92.10;;;;;;4950204;29;20577;-68
2022/04/11 08:20:28;;;;;;;1.50;1.20;;;15.70;91.40;;;;;;4950277;29;20204;-72
2022/04/11 08:22:55;;;;;;;1.37;0.90;;;15.60;91.10;;;;;;4939269;29;20221;-74
2022/04/11 08:25:22;;;;;;;1.50;0.83;;;15.90;91.20;;;;;;4935092;29;20682;-76
2022/04/11 08:27:49;;;;;;;1.53;1.00;;;16.30;90.90;;;;;;4946333;28;20208;-68
2022/04/11 08:30:17;;;;;;;2.10;1.03;;;17.20;90.10;;;;;;4954251;29;20662;-76
2022/04/11 08:32:46;;;;;;;2.57;1.20;;;16.90;89.90;;;;;;4948618;28;20225;-75
2022/04/11 08:35:14;;;;;;;0.90;0.80;;;16.40;88.60;;;;;;4954195;29;20207;-72
2022/04/11 08:37:42;;;;;;;2.07;1.20;;;15.70;89.70;;;;;;4938517;29;20243;-79
2022/04/11 08:40:11;;;;;;;2.47;1.20;;;15.50;89.80;;;;;;4951466;29;20216;-82
2022/04/11 08:42:39;;;;;;;1.40;0.80;;;15.60;90.40;;;;;;4953402;29;20219;-70
2022/04/11 08:45:07;;;;;;;2.13;1.03;;;15.40;90.40;;;;;;4952620;29;20235;-71
2022/04/11 08:47:36;;;;;;;1.67;0.97;;;15.90;90.40;;;;;;4953291;29;20220;-73
2022/04/11 08:50:04;;;;;;;3.60;1.90;;;15.70;89.10;;;;;;4953335;29;20208;-75
2022/04/11 08:52:33;;;;;;;1.57;1.00;;;15.40;89.50;;;;;;4953417;29;20326;-75
2022/04/11 08:55:00;;;;;;;1.70;0.87;;;15.50;90.40;;;;;;4949708;29;20207;-75
2022/04/11 08:57:27;;;;;;;0.93;0.80;;;15.50;90.10;;;;;;4953781;28;20299;-74
2022/04/11 08:59:54;;;;;;;2.90;1.30;;;15.40;90.10;;;;;;4948900;29;20291;-74
2022/04/11 09:02:30;;;;;;;2.03;1.00;;;15.40;90.20;;;;;;4947278;29;20228;-71
2022/04/11 09:04:59;;;;;;;1.97;1.20;;;15.20;90.60;;;;;;4946092;29;20294;-69
2022/04/11 09:07:25;;;;;;;2.53;0.90;;;15.70;90.50;;;;;;4943398;29;20657;-71
2022/04/11 09:09:52;;;;;;;1.90;0.90;;;15.70;88.50;;;;;;4941889;29;20670;-73
2022/04/11 09:12:20;;;;;;;1.27;0.70;;;15.70;90.10;;;;;;4943406;29;20793;-71
2022/04/11 09:14:52;;;;;;;1.07;0.90;;;15.60;89.20;;;;;;4940896;29;20330;-71
2022/04/11 09:17:22;;;;;;;6.03;2.07;;;15.30;90.10;;;;;;4943588;29;20208;-72
2022/04/11 09:20:04;;;;;;;1.57;1.03;;;15.40;90.00;;;;;;4943449;29;20291;-68
2022/04/11 09:22:33;;;;;;;1.50;0.80;;;15.00;89.70;;;;;;4942040;29;20231;-77
2022/04/11 09:25:11;;;;;;;2.43;0.90;;;14.90;89.30;;;;;;4940585;29;20217;-72
2022/04/11 09:27:38;;;;;;;2.77;0.93;;;15.20;90.30;;;;;;4944077;29;20295;-76
2022/04/11 09:30:19;;;;;;;1.63;0.90;;;15.50;91.20;;;;;;4941119;28;20205;-71
2022/04/11 09:32:59;;;;;;;3.07;0.70;;;15.90;89.90;;;;;;4940913;29;20728;-71
2022/04/11 09:35:27;;;;;;;4.63;1.30;;;15.70;90.30;;;;;;4941032;29;20227;-70
2022/04/11 09:38:15;;;;;;;1.43;1.00;;;15.10;90.10;;;;;;4943741;29;20250;-69
2022/04/11 09:40:44;;;;;;;4.63;1.40;;;14.70;90.50;;;;;;4941835;29;20212;-73
2022/04/11 09:43:12;;;;;;;6.43;3.10;;;14.50;90.30;;;;;;4942807;28;20597;-69
2022/04/11 09:45:44;;;;;;;3.80;1.20;;;14.50;90.90;;;;;;4952229;29;20628;-73
2022/04/11 09:48:12;;;;;;;2.40;0.80;;;14.60;90.70;;;;;;4943734;28;20295;-69
2022/04/11 09:50:38;;;;;;;2.70;1.00;;;14.50;89.60;;;;;;4951515;29;20602;-71
2022/04/11 09:53:11;;;;;;;3.53;0.90;;;14.60;91.70;;;;;;4952104;28;20334;-72
2022/04/11 09:55:41;;;;;;;2.83;1.13;;;14.90;92.30;;;;;;4952455;28;20212;-72
2022/04/11 09:58:08;;;;;;;1.50;1.10;;;14.80;91.80;;;;;;4952265;28;20208;-79
2022/04/11 10:00:36;;;;;;;4.97;1.17;;;14.60;91.60;;;;;;4952165;29;20236;-69
2022/04/11 10:03:05;;;;;;;8.63;3.07;;;14.40;91.50;;;;;;4942504;29;20229;-70
2022/04/11 10:05:33;;;;;;;3.33;1.23;;;14.00;91.70;;;;;;4944577;29;20212;-79
2022/04/11 10:08:00;;;;;;;3.27;1.10;;;13.80;91.40;;;;;;4953474;29;20207;-70
2022/04/11 10:10:27;;;;;;;2.60;0.93;;;13.80;91.50;;;;;;4953130;29;20207;-74
2022/04/11 10:12:57;;;;;;;2.90;1.00;;;14.00;92.50;;;;;;4951798;29;20747;-78
2022/04/11 10:15:24;;;;;;;2.43;1.00;;;14.00;91.70;;;;;;4942130;29;20394;-79
2022/04/11 10:17:53;;;;;;;1.43;0.90;;;13.90;91.20;;;;;;4942210;29;20295;-70
2022/04/11 10:20:27;;;;;;;1.60;0.93;;;13.90;91.40;;;;;;4936685;29;20213;-79
2022/04/11 10:23:04;;;;;;;1.40;0.80;;;14.10;91.80;;;;;;4944348;29;20227;-71
2022/04/11 10:25:37;;;;;;;4.13;0.80;;;14.00;91.10;;;;;;4945096;29;20204;-76
2022/04/11 10:28:20;;;;;;;2.67;0.80;;;14.20;91.00;;;;;;4943132;29;20200;-69
2022/04/11 10:31:04;;;;;;;1.40;0.70;;;14.30;91.80;;;;;;4944581;29;20196;-70
2022/04/11 10:33:42;;;;;;;0.93;0.60;;;14.20;90.80;;;;;;4942789;29;20229;-74
2022/04/11 10:36:26;;;;;;;1.53;0.87;;;14.30;90.60;;;;;;4945112;29;20625;-72
2022/04/11 10:39:24;;;;;;;2.63;0.90;;;14.30;90.10;;;;;;4950970;28;20248;-70
2022/04/11 10:42:10;;;;;;;1.57;0.83;;;14.40;89.60;;;;;;4945324;28;20602;-70
2022/04/11 10:44:40;;;;;;;2.60;0.87;;;14.30;89.30;;;;;;4952937;29;20239;-70
2022/04/11 10:47:33;;;;;;;3.60;0.70;;;14.30;90.00;;;;;;4953538;29;20592;-69
2022/04/11 10:50:20;;;;;;;1.30;0.80;;;14.20;90.00;;;;;;4953367;29;20219;-70
2022/04/11 10:53:09;;;;;;;1.27;0.70;;;14.20;89.10;;;;;;4955728;28;20223;-82
2022/04/11 10:55:53;;;;;;;1.33;0.80;;;14.20;89.70;;;;;;4950089;28;20211;-70
2022/04/11 10:58:22;;;;;;;3.20;0.70;;;14.30;89.60;;;;;;4947418;29;20739;-77
2022/04/11 11:00:52;;;;;;;0.57;0.50;;;14.50;89.50;;;;;;4947552;29;20204;-70
2022/04/11 11:03:19;;;;;;;1.03;0.70;;;14.50;89.40;;;;;;4946541;29;20539;-70
2022/04/11 11:05:48;;;;;;;1.90;0.80;;;14.60;89.80;;;;;;4945837;29;20206;-78
2022/04/11 11:08:27;;;;;;;1.93;0.73;;;14.70;90.30;;;;;;4947106;29;20196;-71
2022/04/11 11:10:55;;;;;;;2.73;0.80;;;14.90;90.50;;;;;;4945774;29;20203;-71
2022/04/11 11:13:27;;;;;;;3.37;0.80;;;15.00;91.00;;;;;;4952487;29;20211;-71
2022/04/11 11:15:56;;;;;;;2.30;0.90;;;14.90;89.20;;;;;;4946463;29;20276;-82
2022/04/11 11:18:24;;;;;;;3.90;1.20;;;14.80;89.50;;;;;;4937439;28;20292;-84
2022/04/11 11:20:52;;;;;;;1.33;0.70;;;14.70;90.10;;;;;;4947071;29;20208;-81
2022/04/11 11:23:25;;;;;;;2.27;0.77;;;14.80;90.30;;;;;;4956798;28;20562;-71
2022/04/11 11:25:54;;;;;;;1.20;0.83;;;15.00;90.30;;;;;;4957067;28;20288;-74
2022/04/11 11:28:21;;;;;;;3.07;0.90;;;15.20;90.00;;;;;;4949976;28;20200;-70
2022/04/11 11:30:48;;;;;;;1.87;0.87;;;15.30;88.50;;;;;;4953372;29;20208;-78
2022/04/11 11:33:18;;;;;;;3.03;1.00;;;15.10;89.90;;;;;;4950244;28;20301;-70
2022/04/11 11:35:51;;;;;;;2.17;0.90;;;15.00;90.10;;;;;;4942477;28;20239;-71
2022/04/11 11:38:22;;;;;;;1.53;0.93;;;15.20;90.70;;;;;;4951805;28;20204;-74
2022/04/11 11:40:53;;;;;;;1.00;0.80;;;15.30;91.00;;;;;;4955949;29;20204;-69
2022/04/11 11:43:21;;;;;;;1.77;1.00;;;15.30;89.80;;;;;;4945652;28;20216;-75
2022/04/11 11:45:48;;;;;;;1.70;0.93;;;15.20;90.80;;;;;;4948163;29;20212;-69
2022/04/11 11:48:25;;;;;;;1.47;0.80;;;15.20;90.00;;;;;;4956386;29;20207;-69
2022/04/11 11:50:55;;;;;;;3.50;1.00;;;15.40;90.20;;;;;;4956068;29;20207;-69
2022/04/11 11:53:22;;;;;;;0.93;0.77;;;15.30;89.30;;;;;;4955856;29;20206;-69
2022/04/11 11:55:57;;;;;;;1.33;1.00;;;15.20;90.00;;;;;;4954568;28;20232;-75
2022/04/11 11:58:34;;;;;;;2.43;1.07;;;15.30;90.70;;;;;;4956407;28;20219;-69
2022/04/11 12:01:00;;;;;;;2.23;0.90;;;15.40;89.90;;;;;;4956176;29;20208;-69
2022/04/11 12:06:13;;;;;;;1.50;0.83;;;15.40;89.40;;;;;;4955474;29;20223;-71
2022/04/11 12:08:40;;;;;;;1.83;0.80;;;15.50;89.50;;;;;;4955921;29;20665;-70
2022/04/11 12:11:08;;;;;;;1.00;0.90;;;15.50;86.90;;;;;;4946004;29;20208;-71
2022/04/11 12:13:35;;;;;;;1.40;0.80;;;15.60;87.30;;;;;;4942498;28;20292;-76
2022/04/11 12:16:07;;;;;;;2.40;0.93;;;15.70;87.60;;;;;;4946598;29;20634;-70
2022/04/11 12:18:52;;;;;;;1.80;0.80;;;15.70;87.10;;;;;;4942546;29;20204;-80
2022/04/11 12:21:23;;;;;;;1.93;0.70;;;16.00;85.80;;;;;;4945323;28;20725;-69
2022/04/11 12:23:50;;;;;;;0.60;0.40;;;15.90;84.20;;;;;;4938892;29;20218;-78
2022/04/11 12:26:28;;;;;;;3.23;0.80;;;15.90;83.30;;;;;;4954723;29;20569;-79
2022/04/11 12:28:55;;;;;;;1.90;1.10;;;15.90;84.20;;;;;;4952065;29;20206;-73
2022/04/11 12:31:22;;;;;;;2.63;0.90;;;16.00;86.10;;;;;;4945811;29;20575;-74
2022/04/11 12:33:52;;;;;;;1.70;0.90;;;16.10;85.60;;;;;;4946327;28;20243;-74
2022/04/11 12:36:22;;;;;;;3.37;0.90;;;16.00;85.40;;;;;;4949944;29;20214;-72
2022/04/11 12:38:51;;;;;;;1.37;0.70;;;16.10;85.10;;;;;;4950626;28;20204;-68
2022/04/11 12:41:36;;;;;;;0.97;0.83;;;16.20;83.30;;;;;;4945194;29;20720;-77
2022/04/11 12:44:10;;;;;;;1.40;0.80;;;16.10;84.40;;;;;;4943751;29;20280;-77
2022/04/11 12:46:39;;;;;;;1.60;0.70;;;16.10;85.10;;;;;;4944479;29;20725;-78
2022/04/11 12:49:07;;;;;;;2.30;0.93;;;16.10;85.70;;;;;;4944633;29;20204;-75
2022/04/11 12:51:34;;;;;;;4.60;0.70;;;16.30;85.50;;;;;;4945454;29;20216;-78
2022/04/11 12:54:04;;;;;;;0.97;0.80;;;16.40;84.10;;;;;;4954517;29;20212;-76
2022/04/11 12:56:38;;;;;;;3.07;0.90;;;16.20;84.20;;;;;;4953133;29;20217;-68
2022/04/11 12:59:05;;;;;;;1.23;0.90;;;16.30;84.10;;;;;;4953588;29;20216;-69
2022/04/11 13:01:55;;;;;;;2.23;0.80;;;16.30;83.10;;;;;;4955208;28;20239;-69
2022/04/11 13:04:23;;;;;;;1.00;0.70;;;16.40;84.50;;;;;;4954908;29;20215;-75